createdAt,value
2023-03-25T00:00:28.721Z,96956.59
2023-03-25T00:02:57.102Z,96957.09
2023-03-25T00:05:28.000Z,96955.28
2023-03-25T00:07:56.476Z,96941.69
2023-03-25T00:10:24.558Z,96935.78
2023-03-25T00:12:52.996Z,96925.03
2023-03-25T00:15:22.385Z,96923.97
2023-03-25T00:17:50.786Z,96925.75
2023-03-25T00:20:18.975Z,96931.03
2023-03-25T00:22:48.435Z,96916.84
2023-03-25T00:25:19.337Z,96923.19
2023-03-25T00:27:51.085Z,96927.66
2023-03-25T00:30:21.238Z,96910.78
2023-03-25T00:32:52.932Z,96909.31
2023-03-25T00:35:24.214Z,96903.50
2023-03-25T00:37:57.813Z,96910.72
2023-03-25T00:40:26.130Z,96909.03
2023-03-25T00:42:54.220Z,96911.47
2023-03-25T00:45:22.474Z,96907.13
2023-03-25T00:47:52.445Z,96906.50
2023-03-25T00:50:21.576Z,96906.34
2023-03-25T00:52:50.237Z,96908.25
2023-03-25T00:55:20.125Z,96915.69
2023-03-25T00:57:48.371Z,96917.59
2023-03-25T01:00:19.685Z,96919.19
2023-03-25T01:02:53.916Z,96921.66
2023-03-25T01:05:22.618Z,96911.69
2023-03-25T01:07:51.927Z,96909.16
2023-03-25T01:10:21.556Z,96909.34
2023-03-25T01:12:50.125Z,96896.84
2023-03-25T01:15:19.796Z,96899.50
2023-03-25T01:17:48.640Z,96898.75
2023-03-25T01:20:16.926Z,96902.78
2023-03-25T01:22:45.119Z,96902.16
2023-03-25T01:25:13.406Z,96899.50
2023-03-25T01:27:42.902Z,96896.06
2023-03-25T01:30:12.380Z,96896.25
2023-03-25T01:32:40.869Z,96883.03
2023-03-25T01:35:10.992Z,96867.78
2023-03-25T01:37:39.320Z,96859.19
2023-03-25T01:40:10.456Z,96852.44
2023-03-25T01:42:38.659Z,96829.56
2023-03-25T01:45:21.153Z,96820.03
2023-03-25T01:47:52.958Z,96823.22
2023-03-25T01:50:22.132Z,96810.09
2023-03-25T01:52:53.661Z,96814.97
2023-03-25T01:55:23.383Z,96811.38
2023-03-25T01:57:56.009Z,96808.53
2023-03-25T02:00:26.728Z,96807.00
2023-03-25T02:02:59.426Z,96807.78
2023-03-25T02:05:36.069Z,96811.38
2023-03-25T02:08:09.269Z,96821.03
2023-03-25T02:10:38.361Z,96827.69
2023-03-25T02:13:07.600Z,96831.91
2023-03-25T02:15:50.326Z,96829.56
2023-03-25T02:18:39.844Z,96830.41
2023-03-25T02:21:35.809Z,96818.28
2023-03-25T02:24:45.935Z,96816.22
2023-03-25T02:27:28.450Z,96798.72
2023-03-25T02:30:26.680Z,96790.88
2023-03-25T02:33:45.859Z,96797.88
2023-03-25T02:36:35.493Z,96800.53
2023-03-25T02:39:08.899Z,96805.72
2023-03-25T02:41:44.622Z,96803.91
2023-03-25T02:44:16.165Z,96810.53
2023-03-25T02:46:49.765Z,96800.88
2023-03-25T02:49:24.273Z,96811.22
2023-03-25T02:51:57.921Z,96826.13
2023-03-25T02:54:30.448Z,96829.47
2023-03-25T02:57:01.048Z,96833.81
2023-03-25T02:59:33.547Z,96832.25
2023-03-25T03:02:06.043Z,96821.78
2023-03-25T03:04:34.273Z,96810.50
2023-03-25T03:07:02.594Z,96808.09
2023-03-25T03:09:40.968Z,96819.66
2023-03-25T03:12:18.507Z,96828.53
2023-03-25T03:14:57.596Z,96829.38
2023-03-25T03:17:34.023Z,96833.00
2023-03-25T03:20:13.302Z,96834.47
2023-03-25T03:22:45.867Z,96845.28
2023-03-25T03:25:27.599Z,96836.38
2023-03-25T03:27:58.443Z,96847.19
2023-03-25T03:30:32.647Z,96845.28
2023-03-25T03:33:10.232Z,96860.09
2023-03-25T03:35:44.109Z,96858.00
2023-03-25T03:38:16.438Z,96848.88
2023-03-25T03:40:52.309Z,96854.38
2023-03-25T03:43:27.128Z,96848.66
2023-03-25T03:45:59.495Z,96864.25
2023-03-25T03:48:32.513Z,96872.38
2023-03-25T03:51:04.538Z,96880.03
2023-03-25T03:53:36.304Z,96865.84
2023-03-25T03:56:09.543Z,96874.97
2023-03-25T03:58:41.946Z,96874.97
2023-03-25T04:01:15.522Z,96861.59
2023-03-25T04:03:50.720Z,96869.53
2023-03-25T04:06:24.625Z,96881.97
2023-03-25T04:08:59.855Z,96890.84
2023-03-25T04:11:35.668Z,96896.69
2023-03-25T04:14:05.469Z,96912.41
2023-03-25T04:16:36.002Z,96920.34
2023-03-25T04:19:05.467Z,96913.16
2023-03-25T04:21:33.612Z,96910.00
2023-03-25T04:24:01.824Z,96910.94
2023-03-25T04:26:34.281Z,96918.88
2023-03-25T04:29:03.827Z,96916.25
2023-03-25T04:31:33.855Z,96921.03
2023-03-25T04:34:03.070Z,96918.81
2023-03-25T04:36:33.816Z,96922.91
2023-03-25T04:39:02.331Z,96931.06
2023-03-25T04:41:32.216Z,96941.44
2023-03-25T04:44:00.498Z,96952.03
2023-03-25T04:46:28.677Z,96959.22
2023-03-25T04:48:57.167Z,96950.75
2023-03-25T04:51:25.337Z,96943.66
2023-03-25T04:53:53.505Z,96949.03
2023-03-25T04:56:23.474Z,96960.47
2023-03-25T04:58:53.452Z,96970.41
2023-03-25T05:01:30.978Z,96978.25
2023-03-25T05:04:05.689Z,96976.78
2023-03-25T05:06:35.000Z,96967.03
2023-03-25T05:09:04.897Z,96960.91
2023-03-25T05:11:35.103Z,96974.88
2023-03-25T05:14:04.825Z,96967.75
2023-03-25T05:16:33.156Z,96981.84
2023-03-25T05:19:01.333Z,96978.34
2023-03-25T05:21:29.409Z,96975.69
2023-03-25T05:23:58.260Z,96981.22
2023-03-25T05:26:29.468Z,96981.97
2023-03-25T05:29:01.630Z,96978.34
2023-03-25T05:31:31.896Z,96979.09
2023-03-25T05:34:00.078Z,96981.22
2023-03-25T05:36:28.445Z,96967.91
2023-03-25T05:38:58.317Z,96967.47
2023-03-25T05:41:32.796Z,96962.41
2023-03-25T05:44:01.908Z,96974.25
2023-03-25T05:46:31.379Z,96974.25
2023-03-25T05:49:01.011Z,96949.69
2023-03-25T05:51:33.893Z,96955.41
2023-03-25T05:54:02.683Z,96972.84
2023-03-25T05:56:30.953Z,96981.88
2023-03-25T05:58:59.293Z,96989.38
2023-03-25T06:01:33.237Z,96988.88
2023-03-25T06:04:03.788Z,96987.16
2023-03-25T06:06:34.500Z,96998.06
2023-03-25T06:09:04.393Z,97004.94
2023-03-25T06:11:38.297Z,97004.28
2023-03-25T06:14:07.694Z,97006.81
2023-03-25T06:16:36.186Z,97005.13
2023-03-25T06:19:09.506Z,96994.69
2023-03-25T06:21:38.384Z,96988.22
2023-03-25T06:24:07.179Z,96979.31
2023-03-25T06:26:35.438Z,96985.56
2023-03-25T06:29:04.290Z,96974.69
2023-03-25T06:31:34.189Z,96967.91
2023-03-25T06:34:03.274Z,96967.66
2023-03-25T06:36:34.857Z,96968.97
2023-03-25T06:39:05.203Z,96977.34
2023-03-25T06:41:35.974Z,96971.38
2023-03-25T06:44:27.273Z,96980.16
2023-03-25T06:47:14.027Z,96989.03
2023-03-25T06:49:47.314Z,96979.88
2023-03-25T06:52:17.053Z,96998.03
2023-03-25T06:54:45.407Z,96993.53
2023-03-25T06:57:13.727Z,96992.69
2023-03-25T06:59:41.976Z,97006.06
2023-03-25T07:02:13.413Z,97016.22
2023-03-25T07:04:44.242Z,97015.47
2023-03-25T07:07:12.434Z,97037.03
2023-03-25T07:09:41.994Z,97044.09
2023-03-25T07:12:10.386Z,97046.22
2023-03-25T07:14:41.029Z,97032.63
2023-03-25T07:17:09.319Z,97046.56
2023-03-25T07:19:37.568Z,97043.38
2023-03-25T07:22:06.572Z,97048.38
2023-03-25T07:24:34.925Z,97034.78
2023-03-25T07:27:04.774Z,97032.78
2023-03-25T07:29:34.512Z,97024.69
2023-03-25T07:32:02.622Z,97014.38
2023-03-25T07:34:31.024Z,97010.78
2023-03-25T07:36:59.352Z,97013.22
2023-03-25T07:39:27.690Z,97013.50
2023-03-25T07:41:56.215Z,97003.81
2023-03-25T07:44:46.004Z,97012.34
2023-03-25T07:47:14.154Z,97001.84
2023-03-25T07:49:42.992Z,96998.72
2023-03-25T07:52:11.306Z,96999.81
2023-03-25T07:54:39.448Z,96997.06
2023-03-25T07:57:07.633Z,96998.59
2023-03-25T07:59:35.865Z,97012.69
2023-03-25T08:02:05.831Z,97011.94
2023-03-25T08:04:34.108Z,97018.22
2023-03-25T08:07:02.646Z,97017.38
2023-03-25T08:09:30.837Z,97010.69
2023-03-25T08:11:58.973Z,97009.41
2023-03-25T08:14:27.233Z,97003.34
2023-03-25T08:16:55.417Z,97002.56
2023-03-25T08:19:25.035Z,97024.91
2023-03-25T08:21:53.263Z,97023.34
2023-03-25T08:24:21.449Z,97035.31
2023-03-25T08:26:49.749Z,97043.72
2023-03-25T08:29:18.347Z,97040.78
2023-03-25T08:31:52.405Z,97044.38
2023-03-25T08:34:22.307Z,97042.00
2023-03-25T08:36:59.097Z,97055.41
2023-03-25T08:39:29.886Z,97058.94
2023-03-25T08:41:59.214Z,97068.97
2023-03-25T08:44:27.755Z,97067.84
2023-03-25T08:46:55.965Z,97071.69
2023-03-25T08:49:24.301Z,97075.06
2023-03-25T08:51:52.503Z,97075.34
2023-03-25T08:54:22.041Z,97058.81
2023-03-25T08:56:50.413Z,97043.59
2023-03-25T08:59:18.694Z,97041.69
2023-03-25T09:01:46.939Z,97038.88
2023-03-25T09:04:15.549Z,97041.84
2023-03-25T09:06:47.529Z,97041.72
2023-03-25T09:09:16.542Z,97035.19
2023-03-25T09:11:46.519Z,97018.19
2023-03-25T09:14:14.681Z,97021.91
2023-03-25T09:16:43.048Z,97007.91
2023-03-25T09:19:11.462Z,96997.88
2023-03-25T09:21:39.531Z,96980.88
2023-03-25T09:24:09.511Z,96997.66
2023-03-25T09:26:38.405Z,96989.13
2023-03-25T09:29:07.913Z,96985.25
2023-03-25T09:31:36.236Z,96985.03
2023-03-25T09:34:04.515Z,96988.72
2023-03-25T09:36:33.000Z,96994.13
2023-03-25T09:39:01.397Z,96993.75
2023-03-25T09:41:42.649Z,97004.56
2023-03-25T09:44:18.552Z,97015.66
2023-03-25T09:46:47.168Z,97020.19
2023-03-25T09:49:19.984Z,97036.88
2023-03-25T09:51:51.021Z,97053.44
2023-03-25T09:54:26.290Z,97058.69
2023-03-25T09:56:58.461Z,97075.19
2023-03-25T09:59:41.521Z,97078.09
2023-03-25T10:02:27.470Z,97081.19
2023-03-25T10:05:11.422Z,97082.03
2023-03-25T10:07:52.576Z,97091.75
2023-03-25T10:10:30.194Z,97088.16
2023-03-25T10:13:08.409Z,97089.84
2023-03-25T10:15:45.224Z,97088.41
2023-03-25T10:18:29.002Z,97094.84
2023-03-25T10:21:04.768Z,97102.16
2023-03-25T10:23:38.554Z,97102.41
2023-03-25T10:26:13.346Z,97110.34
2023-03-25T10:28:49.317Z,97099.09
2023-03-25T10:31:22.155Z,97096.03
2023-03-25T10:33:54.339Z,97104.31
2023-03-25T10:36:28.040Z,97087.50
2023-03-25T10:38:56.387Z,97088.75
2023-03-25T10:41:28.732Z,97080.31
2023-03-25T10:43:56.911Z,97075.19
2023-03-25T10:46:32.669Z,97065.25
2023-03-25T10:49:01.052Z,97061.44
2023-03-25T10:51:31.513Z,97050.09
2023-03-25T10:54:00.771Z,97059.28
2023-03-25T10:56:32.832Z,97061.63
2023-03-25T10:59:07.430Z,97072.94
2023-03-25T11:01:40.174Z,97079.59
2023-03-25T11:04:11.539Z,97079.94
2023-03-25T11:06:41.365Z,97064.34
2023-03-25T11:09:19.495Z,97069.00
2023-03-25T11:11:48.576Z,97067.78
2023-03-25T11:14:17.555Z,97076.72
2023-03-25T11:16:53.051Z,97072.22
2023-03-25T11:19:26.653Z,97073.84
2023-03-25T11:21:58.409Z,97084.91
2023-03-25T11:24:35.388Z,97088.81
2023-03-25T11:27:04.272Z,97090.31
2023-03-25T11:29:33.193Z,97079.03
2023-03-25T11:32:09.550Z,97079.75
2023-03-25T11:34:42.406Z,97072.09
2023-03-25T11:37:19.126Z,97078.00
2023-03-25T11:39:52.261Z,97072.19
2023-03-25T11:42:32.752Z,97059.88
2023-03-25T11:45:03.822Z,97051.53
2023-03-25T11:47:37.841Z,97053.97
2023-03-25T11:50:07.731Z,97046.41
2023-03-25T11:52:42.616Z,97038.84
2023-03-25T11:55:19.121Z,97038.22
2023-03-25T11:57:49.045Z,97041.22
2023-03-25T12:00:38.664Z,97043.03
2023-03-25T12:03:20.831Z,97040.97
2023-03-25T12:05:59.407Z,97038.41
2023-03-25T12:08:31.379Z,97040.91
2023-03-25T12:11:05.894Z,97037.41
2023-03-25T12:13:51.469Z,97032.97
2023-03-25T12:16:29.520Z,97030.56
2023-03-25T12:19:17.786Z,97027.03
2023-03-25T12:22:08.133Z,97020.19
2023-03-25T12:24:51.837Z,97018.84
2023-03-25T12:27:34.922Z,97018.00
2023-03-25T12:30:13.727Z,97004.47
2023-03-25T12:32:48.982Z,97009.22
2023-03-25T12:35:29.727Z,97012.13
2023-03-25T12:38:22.041Z,97002.81
2023-03-25T12:41:05.246Z,96998.97
2023-03-25T12:43:45.551Z,96998.13
2023-03-25T12:46:24.951Z,96993.91
2023-03-25T12:49:17.873Z,96996.34
2023-03-25T12:51:59.164Z,97001.41
2023-03-25T12:54:42.945Z,97005.75
2023-03-25T12:57:24.925Z,97010.09
2023-03-25T13:00:18.084Z,97005.09
2023-03-25T13:03:12.655Z,96998.34
2023-03-25T13:05:47.877Z,96987.66
2023-03-25T13:08:20.513Z,96985.56
2023-03-25T13:10:57.491Z,96981.38
2023-03-25T13:13:28.258Z,96983.97
2023-03-25T13:16:04.182Z,96987.28
2023-03-25T13:18:38.126Z,96992.88
2023-03-25T13:21:14.002Z,96991.00
2023-03-25T13:23:49.470Z,97000.53
2023-03-25T13:26:22.424Z,96974.03
2023-03-25T13:28:54.366Z,96974.69
2023-03-25T13:31:24.744Z,96969.91
2023-03-25T13:33:57.472Z,96967.34
2023-03-25T13:36:29.480Z,96965.00
2023-03-25T13:39:02.839Z,96963.66
2023-03-25T13:41:38.394Z,96951.13
2023-03-25T13:44:13.312Z,96940.63
2023-03-25T13:46:46.318Z,96941.59
2023-03-25T13:49:22.053Z,96933.63
2023-03-25T13:51:50.348Z,96928.72
2023-03-25T13:54:25.278Z,96919.88
2023-03-25T13:57:34.188Z,96927.13
2023-03-25T14:00:24.940Z,96916.69
2023-03-25T14:03:30.473Z,96923.25
2023-03-25T14:06:31.002Z,96908.38
2023-03-25T14:09:20.951Z,96906.38
2023-03-25T14:11:56.396Z,96908.94
2023-03-25T14:14:25.709Z,96902.50
2023-03-25T14:16:58.860Z,96913.16
2023-03-25T14:19:30.926Z,96931.59
2023-03-25T14:21:59.940Z,96926.88
2023-03-25T14:24:31.551Z,96924.72
2023-03-25T14:27:05.943Z,96918.31
2023-03-25T14:29:40.326Z,96912.09
2023-03-25T14:32:32.563Z,96905.13
2023-03-25T14:35:41.450Z,96895.53
2023-03-25T14:38:21.919Z,96898.94
2023-03-25T14:41:02.916Z,96889.34
2023-03-25T14:43:37.828Z,96881.75
2023-03-25T14:46:18.620Z,96885.56
2023-03-25T14:48:51.721Z,96888.69
2023-03-25T14:51:36.476Z,96890.53
2023-03-25T14:54:13.544Z,96875.50
2023-03-25T14:56:48.254Z,96883.50
2023-03-25T14:59:19.926Z,96871.41
2023-03-25T15:01:49.250Z,96864.56
2023-03-25T15:04:29.921Z,96862.88
2023-03-25T15:06:59.330Z,96868.97
2023-03-25T15:09:30.788Z,96864.88
2023-03-25T15:12:15.659Z,96864.66
2023-03-25T15:14:45.300Z,96857.50
2023-03-25T15:17:34.026Z,96865.47
2023-03-25T15:20:31.836Z,96872.78
2023-03-25T15:23:33.322Z,96864.34
2023-03-25T15:26:03.385Z,96871.38
2023-03-25T15:28:54.365Z,96879.84
2023-03-25T15:31:41.183Z,96879.72
2023-03-25T15:34:19.725Z,96872.41
2023-03-25T15:37:14.288Z,96873.56
2023-03-25T15:40:07.093Z,96870.59
2023-03-25T15:42:57.139Z,96881.19
2023-03-25T15:45:53.520Z,96869.41
2023-03-25T15:48:35.680Z,96866.59
2023-03-25T15:51:21.589Z,96869.78
2023-03-25T15:54:12.930Z,96862.78
2023-03-25T15:56:43.815Z,96864.88
2023-03-25T15:59:26.195Z,96860.97
2023-03-25T16:01:55.809Z,96848.19
2023-03-25T16:04:33.737Z,96843.97
2023-03-25T16:07:04.950Z,96851.16
2023-03-25T16:09:35.336Z,96863.91
2023-03-25T16:12:04.546Z,96865.03
2023-03-25T16:14:34.753Z,96863.47
2023-03-25T16:17:06.604Z,96848.97
2023-03-25T16:19:41.529Z,96849.47
2023-03-25T16:22:20.419Z,96860.09
2023-03-25T16:24:51.350Z,96856.44
2023-03-25T16:27:26.315Z,96876.41
2023-03-25T16:29:56.898Z,96888.63
2023-03-25T16:32:27.157Z,96890.88
2023-03-25T16:34:57.879Z,96892.88
2023-03-25T16:37:26.786Z,96899.88
2023-03-25T16:39:56.649Z,96899.19
2023-03-25T16:42:28.910Z,96901.88
2023-03-25T16:44:57.067Z,96900.59
2023-03-25T16:47:26.014Z,96912.97
2023-03-25T16:50:01.493Z,96914.19
2023-03-25T16:52:34.154Z,96915.53
2023-03-25T16:55:28.883Z,96916.91
2023-03-25T16:57:57.145Z,96921.78
2023-03-25T17:00:26.809Z,96933.25
2023-03-25T17:02:57.092Z,96947.28
2023-03-25T17:05:29.879Z,96947.50
2023-03-25T17:08:01.976Z,96963.00
2023-03-25T17:10:33.313Z,96972.66
2023-03-25T17:13:09.004Z,96993.31
2023-03-25T17:15:37.829Z,97023.53
2023-03-25T17:18:14.641Z,97044.66
2023-03-25T17:20:46.111Z,97068.50
2023-03-25T17:23:22.934Z,97074.47
2023-03-25T17:25:54.910Z,96989.69
2023-03-25T17:28:33.476Z,96973.88
2023-03-25T17:31:18.790Z,97018.31
2023-03-25T17:33:52.873Z,97033.22
2023-03-25T17:36:23.473Z,97054.88
2023-03-25T17:38:56.408Z,97043.69
2023-03-25T17:41:30.338Z,97046.91
2023-03-25T17:43:59.797Z,97055.94
2023-03-25T17:46:31.262Z,97033.47
2023-03-25T17:49:00.754Z,97049.66
2023-03-25T17:51:31.875Z,97055.66
2023-03-25T17:54:01.243Z,97050.88
2023-03-25T17:56:30.421Z,97051.19
2023-03-25T17:59:01.704Z,97052.91
2023-03-25T18:01:31.435Z,97044.78
2023-03-25T18:03:59.863Z,97053.31
2023-03-25T18:06:29.122Z,97048.56
2023-03-25T18:08:59.934Z,97058.69
2023-03-25T18:11:29.932Z,97055.69
2023-03-25T18:13:59.376Z,97045.41
2023-03-25T18:16:28.971Z,97062.91
2023-03-25T18:18:58.197Z,97061.13
2023-03-25T18:21:27.435Z,97062.16
2023-03-25T18:23:56.129Z,97065.56
2023-03-25T18:26:26.807Z,97063.97
2023-03-25T18:28:56.351Z,97064.44
2023-03-25T18:31:25.610Z,97067.59
2023-03-25T18:33:56.242Z,97067.41
2023-03-25T18:36:26.485Z,97076.53
2023-03-25T18:38:57.082Z,97079.81
2023-03-25T18:41:32.072Z,97079.16
2023-03-25T18:44:01.704Z,97082.63
2023-03-25T18:46:31.782Z,97086.16
2023-03-25T18:49:03.251Z,97088.94
2023-03-25T18:51:32.321Z,97092.81
2023-03-25T18:54:06.083Z,97094.94
2023-03-25T18:56:43.441Z,97094.13
2023-03-25T18:59:16.966Z,97088.84
2023-03-25T19:01:46.469Z,97095.13
2023-03-25T19:04:15.744Z,97082.22
2023-03-25T19:06:44.708Z,97080.88
2023-03-25T19:09:24.337Z,97091.56
2023-03-25T19:11:55.207Z,97094.56
2023-03-25T19:14:24.859Z,97101.94
2023-03-25T19:17:03.712Z,97092.69
2023-03-25T19:19:34.238Z,97090.03
2023-03-25T19:22:04.212Z,97087.06
2023-03-25T19:24:33.821Z,97088.84
2023-03-25T19:27:05.968Z,97091.72
2023-03-25T19:29:35.621Z,97097.22
2023-03-25T19:32:04.766Z,97109.00
2023-03-25T19:34:36.069Z,97105.97
2023-03-25T19:37:05.556Z,97107.22
2023-03-25T19:39:35.589Z,97109.00
2023-03-25T19:42:10.205Z,97113.59
2023-03-25T19:44:39.786Z,97107.19
2023-03-25T19:47:09.836Z,97104.94
2023-03-25T19:49:40.452Z,97125.84
2023-03-25T19:52:10.308Z,97117.63
2023-03-25T19:54:41.684Z,97115.09
2023-03-25T19:57:12.820Z,97124.81
2023-03-25T19:59:44.906Z,97114.09
2023-03-25T20:02:16.087Z,97122.09
2023-03-25T20:04:47.037Z,97128.25
2023-03-25T20:07:16.542Z,97138.78
2023-03-25T20:09:46.186Z,97134.69
2023-03-25T20:12:17.055Z,97145.28
2023-03-25T20:14:47.175Z,97125.66
2023-03-25T20:17:16.579Z,97135.06
2023-03-25T20:19:45.761Z,97133.28
2023-03-25T20:22:24.184Z,97137.69
2023-03-25T20:24:56.095Z,97132.06
2023-03-25T20:27:27.950Z,97121.47
2023-03-25T20:29:58.594Z,97127.09
2023-03-25T20:32:39.775Z,97119.44
2023-03-25T20:35:11.936Z,97122.22
2023-03-25T20:37:42.655Z,97125.69
2023-03-25T20:40:16.392Z,97124.16
2023-03-25T20:42:50.549Z,97125.16
2023-03-25T20:45:29.722Z,97127.16
2023-03-25T20:47:59.981Z,97135.53
2023-03-25T20:50:30.474Z,97146.66
2023-03-25T20:52:59.572Z,97145.16
2023-03-25T20:55:29.831Z,97141.88
2023-03-25T20:58:00.626Z,97147.13
2023-03-25T21:00:30.884Z,97141.41
2023-03-25T21:03:00.224Z,97148.28
2023-03-25T21:05:32.330Z,97157.53
2023-03-25T21:08:01.922Z,97158.50
2023-03-25T21:10:31.104Z,97163.25
2023-03-25T21:13:01.145Z,97159.72
2023-03-25T21:15:31.607Z,97171.06
2023-03-25T21:18:00.658Z,97156.31
2023-03-25T21:20:30.153Z,97159.66
2023-03-25T21:22:59.609Z,97154.81
2023-03-25T21:25:38.202Z,97165.38
2023-03-25T21:28:09.147Z,97166.28
2023-03-25T21:30:37.534Z,97162.66
2023-03-25T21:33:06.508Z,97154.94
2023-03-25T21:35:35.902Z,97159.38
2023-03-25T21:38:07.554Z,97154.13
2023-03-25T21:40:40.123Z,97152.44
2023-03-25T21:43:10.688Z,97154.25
2023-03-25T21:45:41.129Z,97151.00
2023-03-25T21:48:10.587Z,97154.41
2023-03-25T21:50:40.173Z,97158.09
2023-03-25T21:53:13.711Z,97163.47
2023-03-25T21:55:44.844Z,97162.63
2023-03-25T21:58:14.822Z,97162.56
2023-03-25T22:00:43.147Z,97162.97
2023-03-25T22:03:12.224Z,97168.25
2023-03-25T22:05:40.838Z,97164.00
2023-03-25T22:08:09.020Z,97160.47
2023-03-25T22:10:37.429Z,97159.47
2023-03-25T22:13:06.120Z,97164.16
2023-03-25T22:15:36.286Z,97168.66
2023-03-25T22:18:04.779Z,97167.03
2023-03-25T22:20:36.427Z,97166.25
2023-03-25T22:23:05.424Z,97157.47
2023-03-25T22:25:34.436Z,97161.59
2023-03-25T22:28:02.888Z,97169.50
2023-03-25T22:30:31.471Z,97165.38
2023-03-25T22:33:06.884Z,97164.41
2023-03-25T22:35:38.671Z,97172.34
2023-03-25T22:38:07.432Z,97157.84
2023-03-25T22:40:38.976Z,97161.13
2023-03-25T22:43:10.929Z,97162.81
2023-03-25T22:45:39.675Z,97162.97
2023-03-25T22:48:09.574Z,97161.34
2023-03-25T22:50:37.743Z,97167.38
2023-03-25T22:53:05.871Z,97159.44
2023-03-25T22:55:35.216Z,97158.13
2023-03-25T22:58:03.346Z,97152.66
2023-03-25T23:00:31.464Z,97158.97
2023-03-25T23:02:59.697Z,97167.53
2023-03-25T23:05:29.377Z,97152.13
2023-03-25T23:07:57.514Z,97149.47
2023-03-25T23:10:25.699Z,97156.66
2023-03-25T23:12:53.929Z,97151.97
2023-03-25T23:15:22.213Z,97150.63
2023-03-25T23:17:50.632Z,97158.81
2023-03-25T23:20:19.091Z,97154.22
2023-03-25T23:22:48.572Z,97156.13
2023-03-25T23:25:16.758Z,97161.47
2023-03-25T23:27:45.335Z,97158.22
2023-03-25T23:30:13.937Z,97154.13
2023-03-25T23:32:42.353Z,97163.56
2023-03-25T23:35:11.073Z,97172.22
2023-03-25T23:37:41.591Z,97175.75
2023-03-25T23:40:12.635Z,97166.53
2023-03-25T23:42:40.734Z,97167.59
2023-03-25T23:45:10.890Z,97159.09
2023-03-25T23:47:39.121Z,97162.47
2023-03-25T23:50:08.348Z,97153.59
2023-03-25T23:52:36.494Z,97158.09
2023-03-25T23:55:04.990Z,97159.09
2023-03-25T23:57:34.577Z,97164.31
